Pagrindinis puslapis
METAR-TAF:

METAR-TAF

Oro uostai :

Jezdas, Iranas

platuma: 31-54N, ilguma: 054-24E, Aukštis: 1238 m

Dabartinis oras

Ataskaita buvo paskelbta 41 minutes, ne 03:30 UTC
Vėjas 4 kt iš Pietryčių
Temperatūra 11°C
Drėgmė 25%
Slėgis 1026 hPa
Matomumas 10 km arba daugiau
nėra debesų žemiau 1500 m ir nėra kamuolinių lietaus debesų

METAR: OIYY 300330Z 13004KT CAVOK 11/M08 Q1026

Laikas: 07:41 (04:11 UTC)


TAF: trūkstamas

Orai ataskaitas ir orų prognozės (METAR, TAF).

turimą stotys yra geltonos ir raudonos taškus žemėlapyje.

Perkelti pele per norėdami pamatyti stoties vardą.

Tada spustelėkite, norėdami matyti oro stebėjimo ir prognozės.

Norėdami pakeisti žemėlapį: spustelėkite ant žalios mygtukų su juodo kryžiaus žemyn,; žalią mygtuką su brūkšneliu, jei norite nutolinti; arba žalių rodyklių gretimoms žemėlapius.


METAR-TAF: